createdAt,value
2022-11-05T00:00:17.536Z,10.04
2022-11-05T00:03:02.795Z,10.01
2022-11-05T00:05:48.535Z,10.02
2022-11-05T00:08:33.867Z,9.97
2022-11-05T00:11:00.918Z,9.86
2022-11-05T00:13:46.796Z,9.93
2022-11-05T00:16:32.459Z,9.92
2022-11-05T00:19:09.168Z,9.92
2022-11-05T00:21:58.138Z,9.81
2022-11-05T00:24:43.748Z,9.76
2022-11-05T00:27:11.253Z,9.67
2022-11-05T00:29:38.120Z,9.61
2022-11-05T00:32:05.124Z,9.63
2022-11-05T00:34:32.336Z,9.66
2022-11-05T00:36:59.121Z,9.67
2022-11-05T00:39:25.941Z,9.69
2022-11-05T00:42:11.430Z,9.68
2022-11-05T00:44:56.662Z,9.71
2022-11-05T00:47:41.805Z,9.72
2022-11-05T00:50:10.907Z,9.68
2022-11-05T00:52:57.076Z,9.69
2022-11-05T00:55:34.875Z,9.71
2022-11-05T00:58:03.840Z,9.71
2022-11-05T01:00:33.064Z,9.70
2022-11-05T01:03:00.866Z,9.75
2022-11-05T01:05:28.793Z,9.73
2022-11-05T01:07:56.069Z,9.79
2022-11-05T01:10:24.673Z,9.82
2022-11-05T01:12:51.738Z,9.81
2022-11-05T01:15:19.925Z,9.80
2022-11-05T01:17:47.109Z,9.78
2022-11-05T01:20:14.158Z,9.82
2022-11-05T01:22:41.031Z,9.87
2022-11-05T01:25:08.906Z,9.90
2022-11-05T01:27:37.380Z,9.84
2022-11-05T01:30:06.961Z,9.89
2022-11-05T01:32:35.522Z,9.86
2022-11-05T01:35:04.070Z,9.80
2022-11-05T01:37:30.967Z,9.73
2022-11-05T01:39:58.010Z,9.75
2022-11-05T01:42:26.449Z,9.71
2022-11-05T01:44:55.719Z,9.65
2022-11-05T01:47:34.352Z,9.64
2022-11-05T01:50:14.086Z,9.61
2022-11-05T01:52:40.941Z,9.67
2022-11-05T01:55:10.437Z,9.62
2022-11-05T01:57:37.479Z,9.58
2022-11-05T02:00:04.866Z,9.57
2022-11-05T02:02:40.123Z,9.51
2022-11-05T02:05:11.187Z,9.46
2022-11-05T02:07:38.368Z,9.50
2022-11-05T02:10:10.203Z,9.49
2022-11-05T02:12:39.594Z,9.45
2022-11-05T02:15:06.667Z,9.36
2022-11-05T02:18:10.920Z,9.40
2022-11-05T02:20:59.683Z,9.37
2022-11-05T02:24:18.414Z,9.33
2022-11-05T02:27:03.496Z,9.29
2022-11-05T02:30:03.499Z,9.16
2022-11-05T02:32:36.162Z,9.13
2022-11-05T02:35:19.080Z,9.13
2022-11-05T02:38:06.599Z,9.06
2022-11-05T02:40:49.522Z,9.11
2022-11-05T02:43:28.305Z,9.02
2022-11-05T02:46:01.184Z,9.07
2022-11-05T02:48:34.065Z,9.03
2022-11-05T02:51:18.785Z,9.02
2022-11-05T02:54:01.825Z,9.03
2022-11-05T02:56:35.603Z,9.06
2022-11-05T02:59:02.436Z,9.08
2022-11-05T03:01:29.384Z,9.13
2022-11-05T03:04:00.887Z,9.16
2022-11-05T03:06:41.255Z,9.09
2022-11-05T03:09:32.128Z,9.06
2022-11-05T03:12:10.120Z,8.99
2022-11-05T03:14:49.101Z,8.97
2022-11-05T03:17:34.043Z,9.00
2022-11-05T03:20:10.662Z,8.95
2022-11-05T03:22:47.645Z,8.88
2022-11-05T03:25:21.909Z,8.86
2022-11-05T03:27:54.457Z,8.83
2022-11-05T03:30:21.576Z,8.75
2022-11-05T03:32:54.871Z,8.67
2022-11-05T03:35:27.890Z,8.65
2022-11-05T03:38:03.405Z,8.53
2022-11-05T03:40:35.159Z,8.50
2022-11-05T03:43:06.707Z,8.54
2022-11-05T03:45:38.402Z,8.46
2022-11-05T03:48:08.277Z,8.57
2022-11-05T03:50:54.180Z,8.57
2022-11-05T03:53:30.199Z,8.62
2022-11-05T03:56:03.348Z,8.60
2022-11-05T03:58:31.861Z,8.60
2022-11-05T04:01:02.777Z,8.61
2022-11-05T04:03:36.398Z,8.63
2022-11-05T04:06:24.087Z,8.58
2022-11-05T04:09:09.740Z,8.62
2022-11-05T04:11:55.651Z,8.65
2022-11-05T04:14:22.549Z,8.67
2022-11-05T04:17:08.764Z,8.68
2022-11-05T04:19:58.174Z,8.72
2022-11-05T04:22:45.370Z,8.73
2022-11-05T04:25:13.322Z,8.72
2022-11-05T04:27:40.137Z,8.64
2022-11-05T04:30:20.040Z,8.63
2022-11-05T04:32:56.756Z,8.62
2022-11-05T04:35:23.848Z,8.61
2022-11-05T04:37:50.715Z,8.53
2022-11-05T04:40:17.553Z,8.55
2022-11-05T04:42:44.354Z,8.62
2022-11-05T04:45:11.134Z,8.64
2022-11-05T04:47:37.959Z,8.58
2022-11-05T04:50:05.560Z,8.55
2022-11-05T04:52:32.432Z,8.53
2022-11-05T04:54:59.263Z,8.49
2022-11-05T04:57:26.056Z,8.58
2022-11-05T04:59:55.145Z,8.58
2022-11-05T05:02:21.993Z,8.56
2022-11-05T05:04:48.843Z,8.60
2022-11-05T05:07:15.670Z,8.62
2022-11-05T05:09:42.493Z,8.66
2022-11-05T05:12:09.262Z,8.68
2022-11-05T05:14:36.172Z,8.68
2022-11-05T05:17:03.036Z,8.65
2022-11-05T05:19:29.904Z,8.66
2022-11-05T05:21:56.731Z,8.65
2022-11-05T05:24:25.134Z,8.65
2022-11-05T05:26:52.155Z,8.70
2022-11-05T05:29:19.379Z,8.77
2022-11-05T05:31:46.179Z,8.83
2022-11-05T05:34:14.420Z,8.86
2022-11-05T05:36:41.214Z,8.86
2022-11-05T05:39:08.892Z,8.97
2022-11-05T05:41:35.687Z,8.99
2022-11-05T05:44:04.374Z,9.01
2022-11-05T05:46:31.149Z,9.19
2022-11-05T05:48:58.297Z,9.44
2022-11-05T05:51:25.075Z,9.48
2022-11-05T05:53:53.936Z,9.45
2022-11-05T05:56:21.145Z,9.50
2022-11-05T05:58:48.256Z,9.54
2022-11-05T06:01:19.193Z,9.56
2022-11-05T06:03:47.309Z,9.59
2022-11-05T06:06:15.342Z,9.63
2022-11-05T06:08:42.606Z,9.68
2022-11-05T06:11:09.800Z,9.73
2022-11-05T06:13:37.528Z,9.81
2022-11-05T06:16:07.081Z,9.89
2022-11-05T06:18:34.809Z,9.92
2022-11-05T06:21:13.010Z,9.96
2022-11-05T06:23:41.718Z,10.04
2022-11-05T06:26:11.317Z,10.14
2022-11-05T06:28:38.346Z,10.29
2022-11-05T06:31:05.952Z,10.41
2022-11-05T06:33:32.820Z,10.46
2022-11-05T06:36:01.279Z,10.51
2022-11-05T06:38:29.466Z,10.56
2022-11-05T06:40:59.360Z,10.59
2022-11-05T06:43:27.385Z,10.65
2022-11-05T06:45:54.974Z,10.69
2022-11-05T06:48:22.012Z,10.76
2022-11-05T06:50:48.865Z,10.88
2022-11-05T06:53:15.696Z,10.95
2022-11-05T06:55:44.870Z,11.01
2022-11-05T06:58:11.716Z,11.10
2022-11-05T07:00:38.644Z,11.21
2022-11-05T07:03:11.158Z,11.29
2022-11-05T07:05:45.361Z,11.43
2022-11-05T07:08:12.329Z,11.55
2022-11-05T07:10:39.191Z,11.65
2022-11-05T07:13:08.373Z,11.75
2022-11-05T07:15:35.969Z,11.82
2022-11-05T07:18:02.940Z,11.92
2022-11-05T07:20:33.937Z,12.01
2022-11-05T07:23:02.721Z,12.04
2022-11-05T07:25:31.507Z,12.21
2022-11-05T07:27:58.607Z,12.36
2022-11-05T07:30:25.476Z,12.50
2022-11-05T07:32:52.447Z,12.70
2022-11-05T07:35:19.327Z,13.00
2022-11-05T07:37:48.005Z,13.28
2022-11-05T07:40:16.646Z,13.48
2022-11-05T07:42:45.233Z,13.68
2022-11-05T07:45:13.717Z,13.86
2022-11-05T07:47:49.646Z,14.05
2022-11-05T07:50:18.376Z,14.19
2022-11-05T07:52:45.762Z,14.28
2022-11-05T07:55:13.447Z,14.36
2022-11-05T07:57:44.968Z,14.51
2022-11-05T08:00:22.962Z,14.75
2022-11-05T08:03:06.860Z,15.04
2022-11-05T08:05:38.994Z,15.09
2022-11-05T08:08:07.716Z,15.23
2022-11-05T08:10:35.452Z,15.33
2022-11-05T08:13:02.512Z,15.31
2022-11-05T08:15:29.454Z,15.32
2022-11-05T08:18:00.994Z,15.47
2022-11-05T08:20:28.522Z,15.62
2022-11-05T08:22:56.155Z,15.53
2022-11-05T08:25:23.890Z,15.64
2022-11-05T08:27:58.768Z,15.75
2022-11-05T08:30:32.624Z,16.01
2022-11-05T08:33:02.392Z,15.87
2022-11-05T08:35:29.883Z,15.85
2022-11-05T08:38:02.876Z,16.03
2022-11-05T08:40:36.155Z,16.15
2022-11-05T08:43:04.971Z,16.31
2022-11-05T08:45:32.071Z,16.45
2022-11-05T08:48:04.366Z,16.52
2022-11-05T08:50:32.130Z,16.52
2022-11-05T08:52:59.187Z,16.51
2022-11-05T08:55:26.737Z,16.47
2022-11-05T08:58:01.501Z,16.43
2022-11-05T09:00:30.929Z,16.35
2022-11-05T09:03:02.401Z,16.30
2022-11-05T09:05:30.825Z,16.27
2022-11-05T09:08:01.298Z,16.22
2022-11-05T09:10:28.766Z,16.15
2022-11-05T09:12:55.850Z,16.14
2022-11-05T09:15:23.567Z,16.14
2022-11-05T09:17:50.923Z,16.14
2022-11-05T09:20:18.097Z,16.13
2022-11-05T09:22:46.401Z,16.16
2022-11-05T09:25:13.276Z,16.21
2022-11-05T09:27:40.055Z,16.32
2022-11-05T09:30:07.441Z,16.33
2022-11-05T09:32:34.397Z,16.52
2022-11-05T09:35:01.435Z,16.62
2022-11-05T09:37:29.306Z,16.64
2022-11-05T09:39:56.075Z,16.63
2022-11-05T09:42:29.431Z,16.63
2022-11-05T09:45:04.014Z,16.66
2022-11-05T09:47:40.350Z,16.68
2022-11-05T09:50:13.419Z,16.84
2022-11-05T09:52:40.228Z,17.00
2022-11-05T09:55:43.111Z,17.17
2022-11-05T09:58:17.971Z,17.24
2022-11-05T10:00:48.849Z,17.25
2022-11-05T10:03:29.013Z,17.15
2022-11-05T10:06:07.229Z,17.22
2022-11-05T10:08:44.298Z,17.29
2022-11-05T10:11:18.536Z,17.44
2022-11-05T10:13:59.635Z,17.51
2022-11-05T10:16:36.456Z,17.69
2022-11-05T10:19:13.223Z,17.68
2022-11-05T10:24:28.150Z,17.67
2022-11-05T10:26:56.428Z,17.71
2022-11-05T10:29:30.217Z,17.72
2022-11-05T10:32:00.024Z,17.61
2022-11-05T10:34:32.734Z,17.55
2022-11-05T10:36:59.730Z,17.49
2022-11-05T10:39:27.953Z,17.40
2022-11-05T10:42:10.914Z,17.48
2022-11-05T10:45:02.230Z,17.51
2022-11-05T10:47:53.850Z,17.62
2022-11-05T10:50:25.166Z,17.73
2022-11-05T10:52:58.331Z,17.83
2022-11-05T10:55:29.834Z,17.77
2022-11-05T10:58:13.361Z,17.82
2022-11-05T11:00:40.651Z,17.92
2022-11-05T11:03:36.313Z,18.00
2022-11-05T11:06:16.792Z,18.20
2022-11-05T11:08:46.256Z,18.13
2022-11-05T11:11:26.172Z,18.13
2022-11-05T11:13:58.973Z,18.11
2022-11-05T11:16:32.119Z,18.06
2022-11-05T11:19:01.333Z,18.11
2022-11-05T11:21:30.212Z,18.13
2022-11-05T11:23:58.681Z,18.07
2022-11-05T11:26:35.555Z,17.99
2022-11-05T11:29:07.152Z,18.00
2022-11-05T11:31:38.317Z,17.88
2022-11-05T11:34:28.360Z,17.83
2022-11-05T11:37:05.509Z,17.83
2022-11-05T11:39:33.404Z,17.82
2022-11-05T11:42:05.703Z,17.70
2022-11-05T11:44:42.002Z,17.80
2022-11-05T11:47:12.319Z,17.80
2022-11-05T11:49:42.025Z,17.79
2022-11-05T11:52:15.227Z,17.75
2022-11-05T11:54:42.966Z,17.76
2022-11-05T11:57:25.192Z,17.75
2022-11-05T12:00:08.341Z,17.72
2022-11-05T12:02:42.323Z,17.70
2022-11-05T12:05:33.075Z,17.71
2022-11-05T12:08:08.641Z,17.73
2022-11-05T12:10:57.857Z,17.68
2022-11-05T12:13:24.618Z,17.69
2022-11-05T12:15:58.066Z,17.65
2022-11-05T12:18:36.851Z,17.63
2022-11-05T12:21:12.477Z,17.65
2022-11-05T12:23:57.534Z,17.63
2022-11-05T12:26:42.665Z,17.69
2022-11-05T12:29:38.322Z,17.72
2022-11-05T12:32:46.549Z,17.75
2022-11-05T12:36:12.321Z,17.72
2022-11-05T12:39:06.853Z,17.64
2022-11-05T12:41:37.144Z,17.55
2022-11-05T12:44:28.100Z,17.54
2022-11-05T12:47:03.731Z,17.52
2022-11-05T12:50:00.405Z,17.53
2022-11-05T12:52:45.342Z,17.57
2022-11-05T12:55:16.973Z,17.55
2022-11-05T12:57:48.250Z,17.59
2022-11-05T13:00:20.542Z,17.50
2022-11-05T13:03:08.824Z,17.52
2022-11-05T13:05:38.762Z,17.52
2022-11-05T13:08:10.648Z,17.49
2022-11-05T13:10:55.295Z,17.42
2022-11-05T13:13:38.642Z,17.38
2022-11-05T13:16:13.736Z,17.43
2022-11-05T13:19:06.991Z,17.45
2022-11-05T13:21:36.170Z,17.42
2022-11-05T13:24:18.898Z,17.36
2022-11-05T13:26:56.364Z,17.35
2022-11-05T13:29:32.917Z,17.35
2022-11-05T13:32:19.906Z,17.34
2022-11-05T13:34:47.777Z,17.29
2022-11-05T13:37:39.495Z,17.29
2022-11-05T13:40:09.812Z,17.24
2022-11-05T13:43:14.793Z,17.19
2022-11-05T13:45:52.261Z,17.15
2022-11-05T13:48:31.330Z,17.04
2022-11-05T13:51:16.717Z,17.02
2022-11-05T13:54:01.892Z,17.01
2022-11-05T13:56:47.299Z,16.99
2022-11-05T13:59:38.890Z,16.96
2022-11-05T14:02:17.566Z,16.99
2022-11-05T14:05:01.292Z,17.01
2022-11-05T14:07:35.310Z,17.02
2022-11-05T14:10:25.175Z,17.00
2022-11-05T14:12:55.019Z,17.02
2022-11-05T14:15:25.816Z,17.00
2022-11-05T14:18:27.887Z,17.01
2022-11-05T14:21:01.149Z,16.99
2022-11-05T14:23:36.636Z,16.96
2022-11-05T14:26:14.125Z,16.90
2022-11-05T14:28:47.432Z,16.89
2022-11-05T14:31:20.098Z,16.82
2022-11-05T14:34:01.447Z,16.77
2022-11-05T14:36:44.684Z,16.75
2022-11-05T14:39:29.190Z,16.71
2022-11-05T14:42:04.694Z,16.65
2022-11-05T14:44:34.971Z,16.62
2022-11-05T14:47:08.040Z,16.57
2022-11-05T14:50:01.574Z,16.54
2022-11-05T14:52:29.068Z,16.51
2022-11-05T14:54:58.667Z,16.45
2022-11-05T14:57:40.778Z,16.41
2022-11-05T15:00:36.735Z,16.32
2022-11-05T15:03:31.414Z,16.26
2022-11-05T15:06:19.294Z,16.18
2022-11-05T15:08:48.915Z,16.15
2022-11-05T15:11:28.391Z,16.09
2022-11-05T15:13:55.189Z,16.05
2022-11-05T15:17:01.147Z,15.86
2022-11-05T15:19:32.831Z,15.96
2022-11-05T15:22:04.517Z,15.91
2022-11-05T15:24:32.159Z,15.84
2022-11-05T15:26:58.915Z,15.80
2022-11-05T15:29:29.009Z,15.72
2022-11-05T15:31:56.950Z,15.56
2022-11-05T15:34:33.217Z,15.51
2022-11-05T15:37:03.494Z,15.44
2022-11-05T15:39:40.840Z,15.40
2022-11-05T15:42:22.436Z,15.34
2022-11-05T15:44:51.955Z,15.28
2022-11-05T15:47:24.554Z,15.20
2022-11-05T15:49:55.984Z,15.13
2022-11-05T15:52:26.079Z,15.07
2022-11-05T15:55:15.028Z,14.98
2022-11-05T15:57:59.036Z,14.92
2022-11-05T16:00:28.558Z,14.83
2022-11-05T16:03:06.566Z,14.81
2022-11-05T16:05:41.798Z,14.76
2022-11-05T16:08:19.072Z,14.68
2022-11-05T16:10:49.344Z,14.67
2022-11-05T16:13:28.074Z,14.65
2022-11-05T16:15:57.081Z,14.63
2022-11-05T16:18:30.188Z,14.58
2022-11-05T16:21:02.902Z,14.52
2022-11-05T16:24:00.677Z,14.46
2022-11-05T16:27:00.688Z,14.38
2022-11-05T16:29:25.773Z,14.29
2022-11-05T16:31:55.353Z,14.24
2022-11-05T16:34:27.080Z,14.20
2022-11-05T16:36:59.197Z,14.11
2022-11-05T16:39:26.695Z,14.10
2022-11-05T16:41:53.651Z,14.06
2022-11-05T16:44:20.485Z,14.03
2022-11-05T16:46:49.464Z,13.99
2022-11-05T16:49:17.492Z,13.97
2022-11-05T16:51:44.823Z,13.93
2022-11-05T16:54:11.660Z,13.91
2022-11-05T16:56:40.082Z,13.90
2022-11-05T16:59:11.282Z,13.78
2022-11-05T17:01:41.034Z,13.79
2022-11-05T17:04:09.571Z,13.76
2022-11-05T17:06:36.410Z,13.74
2022-11-05T17:09:03.250Z,13.64
2022-11-05T17:11:30.027Z,13.66
2022-11-05T17:13:56.908Z,13.59
2022-11-05T17:16:23.890Z,13.59
2022-11-05T17:18:51.171Z,13.52
2022-11-05T17:21:17.950Z,13.42
2022-11-05T17:23:44.754Z,13.40
2022-11-05T17:26:13.837Z,13.37
2022-11-05T17:28:41.231Z,13.38
2022-11-05T17:31:11.699Z,13.37
2022-11-05T17:33:38.702Z,13.32
2022-11-05T17:36:11.204Z,13.36
2022-11-05T17:38:38.634Z,13.25
2022-11-05T17:41:17.394Z,13.26
2022-11-05T17:43:44.538Z,13.24
2022-11-05T17:46:15.176Z,13.17
2022-11-05T17:48:42.565Z,13.19
2022-11-05T17:51:11.306Z,13.15
2022-11-05T17:53:38.371Z,13.14
2022-11-05T17:56:32.514Z,13.10
2022-11-05T17:59:03.145Z,13.05
2022-11-05T18:01:32.829Z,12.97
2022-11-05T18:04:05.408Z,12.87
2022-11-05T18:06:39.627Z,12.86
2022-11-05T18:09:08.261Z,12.80
2022-11-05T18:11:36.325Z,12.77
2022-11-05T18:14:04.022Z,12.74
2022-11-05T18:16:30.973Z,12.69
2022-11-05T18:18:57.854Z,12.67
2022-11-05T18:21:24.671Z,12.64
2022-11-05T18:23:53.643Z,12.67
2022-11-05T18:26:20.640Z,12.70
2022-11-05T18:28:47.458Z,12.69
2022-11-05T18:31:20.743Z,12.67
2022-11-05T18:33:51.441Z,12.64
2022-11-05T18:36:19.449Z,12.58
2022-11-05T18:38:46.875Z,12.55
2022-11-05T18:41:14.204Z,12.50
2022-11-05T18:43:41.251Z,12.51
2022-11-05T18:46:08.919Z,12.50
2022-11-05T18:48:36.527Z,12.27
2022-11-05T18:51:14.093Z,12.31
2022-11-05T18:53:41.864Z,12.22
2022-11-05T18:56:14.838Z,12.14
2022-11-05T18:58:42.804Z,12.10
2022-11-05T19:01:18.722Z,11.99
2022-11-05T19:03:46.660Z,11.92
2022-11-05T19:06:15.077Z,11.88
2022-11-05T19:08:42.072Z,11.83
2022-11-05T19:11:11.913Z,11.84
2022-11-05T19:13:39.348Z,11.83
2022-11-05T19:16:09.012Z,11.85
2022-11-05T19:18:36.244Z,11.88
2022-11-05T19:21:11.653Z,11.84
2022-11-05T19:23:39.533Z,11.83
2022-11-05T19:26:12.715Z,11.86
2022-11-05T19:28:40.492Z,11.84
2022-11-05T19:31:08.539Z,11.95
2022-11-05T19:33:35.751Z,12.03
2022-11-05T19:36:06.542Z,12.19
2022-11-05T19:38:33.684Z,12.29
2022-11-05T19:41:08.225Z,12.39
2022-11-05T19:43:36.221Z,12.43
2022-11-05T19:46:11.158Z,12.48
2022-11-05T19:48:38.380Z,12.46
2022-11-05T19:51:09.764Z,12.41
2022-11-05T19:53:41.032Z,12.32
2022-11-05T19:56:10.795Z,12.24
2022-11-05T19:58:37.574Z,12.15
2022-11-05T20:01:05.073Z,12.05
2022-11-05T20:03:32.056Z,11.97
2022-11-05T20:06:04.315Z,11.87
2022-11-05T20:08:31.125Z,11.79
2022-11-05T20:10:58.068Z,11.75
2022-11-05T20:13:25.221Z,11.75
2022-11-05T20:15:52.151Z,11.73
2022-11-05T20:18:19.354Z,11.82
2022-11-05T20:20:46.846Z,11.81
2022-11-05T20:23:14.419Z,11.81
2022-11-05T20:25:42.548Z,11.72
2022-11-05T20:28:10.080Z,11.69
2022-11-05T20:30:39.962Z,11.59
2022-11-05T20:33:09.312Z,11.55
2022-11-05T20:35:39.595Z,11.47
2022-11-05T20:38:06.517Z,11.55
2022-11-05T20:40:33.377Z,11.52
2022-11-05T20:43:00.173Z,11.53
2022-11-05T20:45:27.021Z,11.54
2022-11-05T20:47:53.873Z,11.45
2022-11-05T20:50:20.732Z,11.40
2022-11-05T20:52:47.581Z,11.33
2022-11-05T20:55:15.740Z,11.37
2022-11-05T20:57:42.687Z,11.38
2022-11-05T21:00:10.021Z,11.40
2022-11-05T21:02:38.680Z,11.25
2022-11-05T21:05:08.109Z,11.21
2022-11-05T21:07:34.891Z,11.17
2022-11-05T21:10:02.351Z,11.08
2022-11-05T21:12:29.256Z,10.98
2022-11-05T21:14:56.193Z,10.99
2022-11-05T21:17:23.028Z,11.05
2022-11-05T21:19:49.979Z,11.10
2022-11-05T21:22:17.200Z,10.95
2022-11-05T21:24:44.322Z,10.95
2022-11-05T21:27:11.282Z,10.90
2022-11-05T21:29:38.060Z,10.88
2022-11-05T21:32:04.918Z,10.82
2022-11-05T21:34:31.895Z,10.83
2022-11-05T21:36:59.027Z,10.81
2022-11-05T21:39:26.162Z,10.79
2022-11-05T21:41:52.961Z,10.83
2022-11-05T21:44:19.844Z,10.83
2022-11-05T21:46:46.748Z,10.85
2022-11-05T21:49:14.693Z,10.87
2022-11-05T21:52:00.053Z,10.84
2022-11-05T21:54:45.683Z,10.79
2022-11-05T21:57:35.916Z,10.77
2022-11-05T22:00:06.214Z,10.74
2022-11-05T22:02:33.227Z,10.73
2022-11-05T22:05:00.384Z,10.73
2022-11-05T22:07:31.762Z,10.68
2022-11-05T22:09:59.103Z,10.62
2022-11-05T22:12:26.567Z,10.54
2022-11-05T22:14:53.648Z,10.49
2022-11-05T22:17:21.430Z,10.55
2022-11-05T22:19:48.253Z,10.56
2022-11-05T22:22:17.537Z,10.55
2022-11-05T22:24:44.595Z,10.55
2022-11-05T22:27:15.277Z,10.58
2022-11-05T22:29:43.295Z,10.59
2022-11-05T22:32:11.360Z,10.60
2022-11-05T22:34:38.243Z,10.58
2022-11-05T22:37:05.224Z,10.59
2022-11-05T22:39:32.209Z,10.63
2022-11-05T22:42:04.220Z,10.69
2022-11-05T22:44:35.213Z,10.71
2022-11-05T22:47:05.409Z,10.70
2022-11-05T22:49:32.970Z,10.77
2022-11-05T22:52:00.328Z,10.83
2022-11-05T22:54:27.199Z,10.82
2022-11-05T22:56:54.017Z,10.80
2022-11-05T22:59:20.913Z,10.83
2022-11-05T23:01:47.953Z,10.77
2022-11-05T23:04:15.696Z,10.91
2022-11-05T23:07:01.225Z,10.93
2022-11-05T23:09:52.264Z,10.95
2022-11-05T23:12:28.508Z,10.81
2022-11-05T23:14:58.517Z,10.95
2022-11-05T23:17:44.763Z,10.91
2022-11-05T23:20:37.058Z,10.84
2022-11-05T23:23:23.022Z,10.74
2022-11-05T23:25:49.835Z,10.66
2022-11-05T23:28:21.331Z,10.64
2022-11-05T23:31:06.790Z,10.60
2022-11-05T23:33:34.847Z,10.59
2022-11-05T23:36:20.461Z,10.55
2022-11-05T23:38:47.321Z,10.58
2022-11-05T23:41:32.856Z,10.59
2022-11-05T23:44:18.523Z,10.57
2022-11-05T23:47:04.230Z,10.48
2022-11-05T23:49:31.119Z,10.49
2022-11-05T23:51:57.992Z,10.52
2022-11-05T23:54:24.813Z,10.59
2022-11-05T23:56:52.649Z,10.67
2022-11-05T23:59:19.490Z,10.68
